Time;durP1;ratioP1;P1;durP2;ratioP2;P2;SDS_P1;SDS_P2;PMS_P1;PMS_P2;Temp;Humidity;BMP_temperature;BMP_pressure;BME280_temperature;BME280_humidity;BME280_pressure;Samples;Min_cycle;Max_cycle;Signal;HPM_P1;HPM_P2
2022/04/18 00:00:37;;;;;;;2.03;1.08;;;;;;;26.93;24.91;96895.25;4924450;28;20484;-30
2022/04/18 00:03:04;;;;;;;3.15;1.05;;;;;;;26.93;24.92;96895.25;4919606;28;20035;-33
2022/04/18 00:05:31;;;;;;;1.42;0.90;;;;;;;26.92;24.94;96883.03;4920557;28;20054;-33
2022/04/18 00:07:56;;;;;;;1.75;1.08;;;;;;;26.92;25.01;96875.13;4921052;28;20035;-32
2022/04/18 00:10:21;;;;;;;2.30;1.02;;;;;;;26.92;24.96;96875.13;4920665;28;20027;-31
2022/04/18 00:12:47;;;;;;;1.73;0.75;;;;;;;26.92;24.97;96880.41;4924549;28;20202;-33
2022/04/18 00:15:12;;;;;;;2.60;1.15;;;;;;;26.92;24.98;96875.97;4921157;28;20038;-34
2022/04/18 00:17:38;;;;;;;1.80;1.00;;;;;;;26.91;24.89;96876.06;4919720;28;20047;-31
2022/04/18 00:20:04;;;;;;;1.58;0.80;;;;;;;26.92;24.99;96869.88;4925691;28;20047;-32
2022/04/18 00:22:29;;;;;;;1.17;0.80;;;;;;;26.91;25.07;96879.53;4922827;28;20036;-32
2022/04/18 00:24:55;;;;;;;2.85;1.00;;;;;;;26.90;24.88;96877.84;4920498;28;20631;-30
2022/04/18 00:27:20;;;;;;;1.60;0.90;;;;;;;26.91;25.07;96876.06;4940539;28;20041;-32
2022/04/18 00:29:47;;;;;;;2.88;1.10;;;;;;;26.90;24.96;96877.00;4920507;28;20046;-32
2022/04/18 00:32:14;;;;;;;1.33;0.90;;;;;;;26.90;24.99;96871.72;4920724;28;20410;-32
2022/04/18 00:34:39;;;;;;;2.35;0.70;;;;;;;26.90;25.15;96866.47;4923277;28;20036;-31
2022/04/18 00:37:04;;;;;;;2.17;1.10;;;;;;;26.88;25.01;96864.78;4890217;28;20031;-32
2022/04/18 00:39:30;;;;;;;2.83;1.17;;;;;;;26.89;25.06;96868.28;4878628;28;20038;-38
2022/04/18 00:41:55;;;;;;;2.53;1.17;;;;;;;26.88;25.05;96872.69;4880245;28;20856;-36
2022/04/18 00:44:21;;;;;;;1.17;1.05;;;;;;;26.88;25.17;96872.69;4887656;28;20086;-41
2022/04/18 00:46:46;;;;;;;1.20;1.00;;;;;;;26.88;25.04;96861.31;4886766;28;20083;-35
2022/04/18 00:49:12;;;;;;;1.88;0.98;;;;;;;26.87;25.11;96865.72;4883762;28;20045;-33
2022/04/18 00:51:37;;;;;;;1.80;1.00;;;;;;;26.87;24.94;96863.09;4885699;28;20039;-31
2022/04/18 00:54:02;;;;;;;2.28;0.90;;;;;;;26.86;24.82;96861.38;4882555;28;20118;-34
2022/04/18 00:56:28;;;;;;;2.55;0.75;;;;;;;26.87;25.08;96863.09;4880670;28;20046;-36
2022/04/18 00:58:54;;;;;;;2.15;1.05;;;;;;;26.86;25.10;96848.22;4883811;28;20066;-33
2022/04/18 01:01:20;;;;;;;1.15;0.90;;;;;;;26.87;25.04;96846.47;4892656;28;20035;-34
2022/04/18 01:03:45;;;;;;;1.35;0.98;;;;;;;26.85;25.00;96849.19;4886706;28;20042;-33
2022/04/18 01:06:14;;;;;;;3.13;1.15;;;;;;;26.86;25.03;96848.22;4883888;28;21962;-33
2022/04/18 01:08:39;;;;;;;1.70;0.95;;;;;;;26.86;25.01;96842.97;4882039;28;20079;-36
2022/04/18 01:11:09;;;;;;;2.60;1.20;;;;;;;26.86;25.06;96840.34;4888125;28;20032;-33
2022/04/18 01:13:46;;;;;;;1.05;0.80;;;;;;;26.83;24.79;96835.28;4882613;28;20133;-35
2022/04/18 01:16:11;;;;;;;6.65;1.40;;;;;;;26.85;25.12;96836.03;4888528;28;21558;-31
2022/04/18 01:18:37;;;;;;;2.90;1.25;;;;;;;26.85;25.02;96836.03;4889188;28;20035;-34
2022/04/18 01:21:04;;;;;;;2.72;1.50;;;;;;;26.84;25.04;96831.72;4889624;28;20949;-38
2022/04/18 01:23:30;;;;;;;1.38;1.00;;;;;;;26.85;25.09;96833.41;4884365;28;20577;-33
2022/04/18 01:31:23;;;;;;;1.92;1.30;;;;;;;26.84;25.06;96826.44;4883785;28;20134;-34
2022/04/18 01:33:49;;;;;;;4.97;1.50;;;;;;;26.83;25.11;96827.41;4887097;28;20044;-32
2022/04/18 01:36:14;;;;;;;2.00;1.25;;;;;;;26.83;25.02;96822.13;4907063;28;20434;-30
2022/04/18 01:38:39;;;;;;;2.35;1.00;;;;;;;26.83;24.94;96814.25;4928302;28;20042;-32
2022/04/18 01:41:05;;;;;;;2.67;1.50;;;;;;;26.81;25.04;96818.72;4926292;28;20098;-33
2022/04/18 01:43:30;;;;;;;3.55;1.60;;;;;;;26.81;25.08;96817.91;4927174;28;20506;-31
2022/04/18 01:45:55;;;;;;;2.13;1.08;;;;;;;26.81;24.97;96816.09;4942295;28;20054;-34
2022/04/18 01:48:21;;;;;;;3.15;1.10;;;;;;;26.81;25.05;96820.53;4921927;28;20751;-34
2022/04/18 01:50:46;;;;;;;2.38;1.13;;;;;;;26.81;24.95;96821.34;4926139;28;20043;-32
2022/04/18 01:53:12;;;;;;;1.25;0.95;;;;;;;26.81;25.05;96820.53;4925767;28;20027;-33
2022/04/18 01:55:37;;;;;;;1.52;1.10;;;;;;;26.80;24.97;96819.66;4924310;28;20035;-35
2022/04/18 01:58:05;;;;;;;1.92;1.17;;;;;;;26.80;24.96;96819.66;4920764;28;20035;-36
2022/04/18 02:00:34;;;;;;;1.80;1.10;;;;;;;26.80;25.03;96818.81;4929263;28;20023;-31
2022/04/18 02:02:59;;;;;;;1.35;1.00;;;;;;;26.80;24.94;96808.28;4933814;28;20123;-33
2022/04/18 02:05:25;;;;;;;2.40;1.27;;;;;;;26.79;25.04;96810.09;4927978;28;20514;-33
2022/04/18 02:07:50;;;;;;;2.53;1.10;;;;;;;26.79;24.97;96807.47;4928509;28;20035;-35
2022/04/18 02:10:16;;;;;;;2.13;1.10;;;;;;;26.78;25.02;96808.41;4925710;28;20059;-34
2022/04/18 02:12:41;;;;;;;1.63;0.98;;;;;;;26.79;25.06;96810.09;4927858;28;20122;-35
2022/04/18 02:15:07;;;;;;;1.42;1.13;;;;;;;26.78;25.02;96803.16;4929905;28;20083;-31
2022/04/18 02:17:32;;;;;;;2.00;1.20;;;;;;;26.78;24.99;96795.25;4923973;28;20457;-31
2022/04/18 02:19:58;;;;;;;1.70;1.17;;;;;;;26.78;24.98;96811.03;4928915;28;20035;-30
2022/04/18 02:22:23;;;;;;;2.15;1.30;;;;;;;26.78;25.06;96804.94;4927631;28;20036;-31
2022/04/18 02:24:49;;;;;;;4.05;1.33;;;;;;;26.78;24.98;96800.53;4921071;28;20589;-30
2022/04/18 02:27:15;;;;;;;2.03;1.35;;;;;;;26.77;25.20;96793.53;4921889;28;22771;-32
2022/04/18 02:29:40;;;;;;;2.83;1.33;;;;;;;26.76;25.03;96791.88;4923465;28;20035;-33
2022/04/18 02:34:50;;;;;;;3.35;1.50;;;;;;;26.76;25.00;96791.88;4929897;28;20043;-36
2022/04/18 02:37:16;;;;;;;1.98;1.30;;;;;;;26.75;24.99;96784.91;4924006;28;20031;-32
2022/04/18 02:39:41;;;;;;;2.03;1.33;;;;;;;26.75;25.06;96784.91;4928191;28;20031;-34
2022/04/18 02:42:06;;;;;;;2.50;1.42;;;;;;;26.74;24.98;96783.22;4929086;28;20045;-33
2022/04/18 02:44:32;;;;;;;3.63;1.60;;;;;;;26.72;25.02;96779.81;4931203;28;20086;-31
2022/04/18 02:46:57;;;;;;;2.58;1.40;;;;;;;26.74;25.01;96780.59;4928016;28;20031;-37
2022/04/18 02:49:23;;;;;;;2.67;1.17;;;;;;;26.72;24.96;96785.94;4929142;28;20027;-31
2022/04/18 02:51:48;;;;;;;2.72;1.38;;;;;;;26.73;25.01;96781.50;4926755;28;20031;-33
2022/04/18 02:54:13;;;;;;;1.83;1.33;;;;;;;26.73;25.01;96781.50;4926369;28;20107;-31
2022/04/18 02:56:39;;;;;;;1.40;0.93;;;;;;;26.73;25.00;96776.25;4925652;28;20079;-30
2022/04/18 02:59:04;;;;;;;3.92;1.20;;;;;;;26.72;25.16;96774.56;4929639;28;20031;-31
2022/04/18 03:01:29;;;;;;;2.58;1.08;;;;;;;26.72;24.87;96769.31;4933930;28;20098;-31
2022/04/18 03:03:55;;;;;;;2.58;1.17;;;;;;;26.72;24.92;96767.53;4931333;28;20031;-31
2022/04/18 03:06:20;;;;;;;2.10;1.30;;;;;;;26.72;24.94;96774.56;4930443;28;20035;-32
2022/04/18 03:08:46;;;;;;;2.00;1.23;;;;;;;26.71;25.03;96765.00;4931007;28;20035;-31
2022/04/18 03:11:11;;;;;;;1.60;1.10;;;;;;;26.71;24.97;96765.84;4928080;28;20094;-31
2022/04/18 03:13:37;;;;;;;1.38;0.95;;;;;;;26.71;24.93;96767.63;4927559;28;20039;-34
2022/04/18 03:16:04;;;;;;;3.47;1.52;;;;;;;26.71;24.96;96770.25;4929255;28;20194;-30
2022/04/18 03:18:29;;;;;;;2.38;1.08;;;;;;;26.70;24.88;96763.31;4945487;28;20043;-31
2022/04/18 03:20:55;;;;;;;2.17;1.48;;;;;;;26.70;25.03;96765.94;4933326;28;20083;-31
2022/04/18 03:23:20;;;;;;;1.55;1.05;;;;;;;26.69;24.93;96764.25;4927213;28;20035;-32
2022/04/18 03:25:46;;;;;;;1.48;1.15;;;;;;;26.69;24.81;96764.25;4927104;28;21062;-32
2022/04/18 03:28:11;;;;;;;1.58;1.10;;;;;;;26.64;24.92;96754.00;4925673;28;20043;-33
2022/04/18 03:30:37;;;;;;;0.70;0.70;;;;;;;26.69;24.95;96756.38;4927159;28;20136;-31
2022/04/18 03:33:02;;;;;;;2.92;1.08;;;;;;;26.68;24.88;96747.63;4928616;28;20028;-38
2022/04/18 03:35:28;;;;;;;1.45;1.00;;;;;;;26.68;24.85;96760.75;4926607;28;20043;-33
2022/04/18 03:40:38;;;;;;;2.38;1.10;;;;;;;26.67;24.99;96751.19;4931822;28;20245;-31
2022/04/18 03:43:04;;;;;;;1.45;1.00;;;;;;;26.67;24.86;96753.81;4925967;28;20023;-33
2022/04/18 03:45:29;;;;;;;1.25;0.95;;;;;;;26.67;24.92;96755.59;4932763;28;20032;-31
2022/04/18 03:47:54;;;;;;;1.83;1.27;;;;;;;26.66;24.88;96743.38;4931202;28;20034;-31
2022/04/18 03:50:20;;;;;;;1.30;1.10;;;;;;;26.65;24.88;96746.97;4930421;28;20509;-35
2022/04/18 03:52:45;;;;;;;1.88;1.10;;;;;;;26.65;25.02;96749.59;4930523;28;20518;-30
2022/04/18 03:55:11;;;;;;;1.27;0.90;;;;;;;26.65;24.85;96749.59;4927212;28;20030;-30
2022/04/18 03:57:37;;;;;;;1.58;1.20;;;;;;;26.64;24.92;96746.09;4926562;28;20027;-32
2022/04/18 04:00:06;;;;;;;1.27;0.95;;;;;;;26.63;24.88;96747.03;4924736;28;20032;-31
2022/04/18 04:02:31;;;;;;;2.15;1.08;;;;;;;26.63;24.81;96744.41;4928909;28;21074;-30
2022/04/18 04:04:57;;;;;;;2.03;1.50;;;;;;;26.63;24.93;96739.16;4931644;28;20121;-32
2022/04/18 04:07:22;;;;;;;1.00;0.82;;;;;;;26.64;24.94;96734.72;4927280;28;20057;-34
2022/04/18 04:09:47;;;;;;;1.40;1.10;;;;;;;26.64;24.91;96732.09;4929011;28;20042;-31
2022/04/18 04:12:13;;;;;;;1.85;1.30;;;;;;;26.61;24.92;96726.09;4926947;28;20023;-31
2022/04/18 04:14:38;;;;;;;1.40;0.98;;;;;;;26.63;24.95;96739.16;4927184;28;20224;-33
2022/04/18 04:17:04;;;;;;;0.90;0.80;;;;;;;26.63;25.02;96735.66;4923779;28;20039;-31
2022/04/18 04:19:29;;;;;;;1.17;0.85;;;;;;;26.61;24.85;96736.63;4929457;28;20083;-31
2022/04/18 04:21:55;;;;;;;2.70;0.90;;;;;;;26.60;24.87;96742.81;4932279;28;20028;-34
2022/04/18 04:24:20;;;;;;;1.63;1.20;;;;;;;26.60;24.85;96740.19;4929541;28;20056;-34
2022/04/18 04:26:46;;;;;;;2.22;1.20;;;;;;;26.60;24.94;96742.81;4926170;28;20031;-30
2022/04/18 04:29:11;;;;;;;1.77;0.95;;;;;;;26.60;24.92;96745.44;4929933;28;20491;-33
2022/04/18 04:31:37;;;;;;;1.75;0.93;;;;;;;26.58;24.81;96736.78;4929837;28;20935;-30
2022/04/18 04:34:02;;;;;;;2.88;1.10;;;;;;;26.58;24.96;96734.16;4928853;28;20039;-31
2022/04/18 04:36:28;;;;;;;1.45;1.02;;;;;;;26.57;24.94;96740.34;4930490;28;20043;-32
2022/04/18 04:38:53;;;;;;;1.45;1.00;;;;;;;26.57;24.61;96740.34;4929924;28;20039;-32
2022/04/18 04:41:18;;;;;;;2.30;1.13;;;;;;;26.57;24.88;96740.34;4930687;28;20043;-29
2022/04/18 04:43:44;;;;;;;1.88;0.93;;;;;;;26.57;24.89;96740.34;4929165;28;20039;-32
2022/04/18 04:46:09;;;;;;;1.00;0.90;;;;;;;26.56;24.93;96741.28;4930119;28;20031;-33
2022/04/18 04:48:35;;;;;;;1.05;0.80;;;;;;;26.57;24.91;96745.59;4927069;28;20583;-31
2022/04/18 04:51:00;;;;;;;4.38;1.00;;;;;;;26.56;24.91;96738.66;4927568;28;20821;-30
2022/04/18 04:53:25;;;;;;;2.38;0.93;;;;;;;26.57;24.93;96739.50;4928796;28;20035;-32
2022/04/18 04:55:51;;;;;;;2.85;0.90;;;;;;;26.55;24.87;96734.31;4930893;28;20034;-30
2022/04/18 04:58:16;;;;;;;1.45;1.00;;;;;;;26.56;24.98;96732.53;4930512;28;20039;-36
2022/04/18 05:00:44;;;;;;;1.00;0.90;;;;;;;26.55;25.04;96726.44;4931858;28;20032;-34
2022/04/18 05:03:10;;;;;;;1.45;0.82;;;;;;;26.56;24.95;96716.78;4927097;28;20086;-32
2022/04/18 05:05:35;;;;;;;1.30;0.95;;;;;;;26.55;24.96;96718.56;4930477;28;20032;-32
2022/04/18 05:08:01;;;;;;;1.80;1.02;;;;;;;26.55;24.94;96723.81;4929503;28;20031;-31
2022/04/18 05:10:26;;;;;;;5.03;1.00;;;;;;;26.55;25.04;96726.44;4926697;28;20039;-28
2022/04/18 05:12:52;;;;;;;3.13;1.67;;;;;;;26.54;24.98;96724.75;4924481;28;20175;-32
2022/04/18 05:15:17;;;;;;;4.97;1.63;;;;;;;26.54;25.16;96724.75;4930944;28;20815;-30
2022/04/18 05:17:43;;;;;;;1.88;0.90;;;;;;;26.54;25.11;96730.00;4929765;28;20676;-32
2022/04/18 05:20:09;;;;;;;2.22;1.15;;;;;;;26.53;25.28;96733.56;4929168;28;20383;-31
2022/04/18 05:22:34;;;;;;;1.95;0.98;;;;;;;26.54;25.21;96735.25;4932156;28;20067;-30
2022/04/18 05:25:00;;;;;;;2.40;1.00;;;;;;;26.54;25.19;96724.75;4928501;28;20113;-30
2022/04/18 05:27:26;;;;;;;2.70;0.88;;;;;;;26.53;25.21;96725.69;4929655;28;20035;-33
2022/04/18 05:29:51;;;;;;;2.00;1.00;;;;;;;26.53;25.33;96733.56;4923904;28;20038;-33
2022/04/18 05:32:17;;;;;;;5.78;1.00;;;;;;;26.54;25.33;96730.00;4926665;28;20090;-30
2022/04/18 05:34:42;;;;;;;3.40;1.00;;;;;;;26.55;25.34;96738.75;4925419;28;20034;-35
2022/04/18 05:37:08;;;;;;;2.03;1.10;;;;;;;26.54;25.35;96739.69;4926112;28;20045;-33
2022/04/18 05:39:34;;;;;;;0.90;0.80;;;;;;;26.54;25.28;96740.50;4927594;28;20074;-29
2022/04/18 05:41:59;;;;;;;1.73;1.00;;;;;;;26.54;25.32;96737.88;4927429;28;20035;-31
2022/04/18 05:44:25;;;;;;;1.15;0.80;;;;;;;26.54;25.39;96737.88;4927193;28;20111;-28
2022/04/18 05:46:50;;;;;;;1.67;0.98;;;;;;;26.54;25.34;96737.06;4925864;28;20039;-33
2022/04/18 05:49:16;;;;;;;1.77;1.00;;;;;;;26.54;25.31;96737.88;4924967;28;20035;-31
2022/04/18 05:51:41;;;;;;;2.63;1.08;;;;;;;26.54;25.38;96735.25;4924629;28;20059;-31
2022/04/18 05:54:06;;;;;;;2.38;1.08;;;;;;;26.54;25.40;96737.06;4924475;28;20032;-31
2022/04/18 05:56:32;;;;;;;2.95;0.98;;;;;;;26.53;25.32;96741.47;4941869;28;20036;-35
2022/04/18 05:58:57;;;;;;;1.83;0.93;;;;;;;26.54;25.29;96744.94;4924968;28;20062;-31
2022/04/18 06:01:23;;;;;;;3.75;0.93;;;;;;;26.54;25.43;96748.41;4927345;28;20460;-34
2022/04/18 06:03:48;;;;;;;0.70;0.60;;;;;;;26.54;25.37;96739.69;4925839;28;20627;-31
2022/04/18 06:06:14;;;;;;;2.30;1.00;;;;;;;26.52;25.55;96734.50;4928898;28;20027;-37
2022/04/18 06:08:39;;;;;;;1.20;0.77;;;;;;;26.53;25.39;96732.72;4930087;28;20050;-33
2022/04/18 06:11:05;;;;;;;0.80;0.70;;;;;;;26.53;25.35;96733.56;4929509;28;20035;-31
2022/04/18 06:13:30;;;;;;;0.70;0.70;;;;;;;26.53;25.53;96733.56;4927843;28;20058;-32
2022/04/18 06:15:56;;;;;;;1.20;0.80;;;;;;;26.54;25.45;96729.19;4927108;28;20040;-33
2022/04/18 06:18:21;;;;;;;1.95;0.80;;;;;;;26.54;25.39;96734.44;4929972;28;20050;-32
2022/04/18 06:20:46;;;;;;;1.42;0.68;;;;;;;26.53;25.50;96733.56;4927168;28;20027;-31
2022/04/18 06:23:14;;;;;;;1.02;0.60;;;;;;;26.53;25.48;96738.84;4928948;28;20031;-34
2022/04/18 06:25:40;;;;;;;1.92;1.00;;;;;;;26.53;25.40;96733.56;4932477;28;20482;-32
2022/04/18 06:28:05;;;;;;;1.00;0.68;;;;;;;26.54;25.54;96740.50;4932585;28;20034;-31
2022/04/18 06:30:31;;;;;;;1.20;0.63;;;;;;;26.53;25.48;96733.56;4933353;28;20426;-31
2022/04/18 06:32:56;;;;;;;1.85;0.82;;;;;;;26.53;25.52;96728.31;4936061;29;20039;-32
2022/04/18 06:35:22;;;;;;;1.35;0.93;;;;;;;26.53;25.58;96733.56;4934276;28;20328;-32
2022/04/18 06:37:47;;;;;;;0.73;0.60;;;;;;;26.53;25.41;96733.56;4928139;28;20421;-36
2022/04/18 06:40:13;;;;;;;1.92;0.77;;;;;;;26.53;25.53;96736.19;4931348;28;20078;-35
2022/04/18 06:42:38;;;;;;;1.13;0.65;;;;;;;26.54;25.50;96734.44;4932578;28;20046;-32
2022/04/18 06:45:04;;;;;;;1.80;0.77;;;;;;;26.53;25.42;96730.94;4933214;28;20042;-33
2022/04/18 06:47:29;;;;;;;7.18;1.50;;;;;;;26.55;25.53;96736.13;4931686;28;20039;-35
2022/04/18 06:49:55;;;;;;;2.53;1.05;;;;;;;26.54;25.42;96724.75;4922069;28;20038;-33
2022/04/18 06:52:22;;;;;;;9.05;1.42;;;;;;;26.54;25.48;96721.28;4921442;28;20051;-35
2022/04/18 06:54:47;;;;;;;8.60;1.70;;;;;;;26.56;25.36;96727.28;4927242;28;21840;-32
2022/04/18 06:57:13;;;;;;;5.50;1.90;;;;;;;26.57;25.38;96724.59;4926768;28;20713;-31
2022/04/18 06:59:38;;;;;;;13.75;2.88;;;;;;;26.57;25.32;96718.47;4927281;28;20059;-32
2022/04/18 07:02:04;;;;;;;6.70;2.47;;;;;;;26.59;25.27;96720.06;4940282;28;20032;-33
2022/04/18 07:04:30;;;;;;;7.97;3.10;;;;;;;26.61;25.29;96719.97;4934614;28;20049;-34
2022/04/18 07:06:55;;;;;;;7.55;3.13;;;;;;;26.61;25.32;96720.84;4925808;28;20102;-35
2022/04/18 07:09:21;;;;;;;13.55;3.58;;;;;;;26.63;25.29;96722.53;4926866;28;20679;-32
2022/04/18 07:11:46;;;;;;;9.93;3.35;;;;;;;26.65;25.32;96725.94;4922104;28;20094;-33
2022/04/18 07:14:13;;;;;;;9.63;3.72;;;;;;;26.67;25.38;96724.06;4939868;28;20031;-39
2022/04/18 07:16:39;;;;;;;10.05;3.33;;;;;;;26.68;25.26;96717.84;4930467;28;20035;-33
2022/04/18 07:19:04;;;;;;;9.23;3.63;;;;;;;26.70;25.32;96729.13;4928587;28;20035;-36
2022/04/18 07:21:30;;;;;;;9.52;3.30;;;;;;;26.71;25.31;96725.56;4929993;28;20639;-30
2022/04/18 07:23:56;;;;;;;10.55;3.35;;;;;;;26.73;25.41;96721.06;4928015;28;20477;-34
2022/04/18 07:26:21;;;;;;;11.23;3.50;;;;;;;26.74;25.39;96720.13;4927484;28;20039;-32
2022/04/18 07:28:47;;;;;;;11.45;3.60;;;;;;;26.76;25.42;96717.44;4925996;28;20082;-33
2022/04/18 07:31:12;;;;;;;7.32;3.50;;;;;;;26.77;25.38;96709.41;4924942;28;20118;-34
2022/04/18 07:33:38;;;;;;;9.27;3.45;;;;;;;26.78;25.43;96711.13;4924552;28;20027;-32
2022/04/18 07:36:03;;;;;;;12.00;3.50;;;;;;;26.81;25.46;96712.75;4926869;28;20031;-35
2022/04/18 07:41:14;;;;;;;10.10;3.30;;;;;;;26.82;25.43;96707.41;4923822;28;20162;-34
2022/04/18 07:43:40;;;;;;;11.15;3.85;;;;;;;26.84;25.38;96707.28;4937944;28;20059;-38
2022/04/18 07:46:05;;;;;;;7.80;2.78;;;;;;;26.85;25.38;96707.19;4921335;28;20101;-39
2022/04/18 07:48:31;;;;;;;10.70;3.22;;;;;;;26.88;25.18;96712.28;4920261;28;20475;-33
2022/04/18 07:53:41;;;;;;;7.80;2.65;;;;;;;26.91;25.12;96710.41;4924113;28;20658;-33
2022/04/18 07:56:06;;;;;;;7.75;2.70;;;;;;;26.92;25.16;96710.31;4925819;28;20110;-30
2022/04/18 07:58:32;;;;;;;6.35;2.80;;;;;;;26.93;25.15;96713.78;4927110;28;20128;-32
2022/04/18 08:00:57;;;;;;;9.15;2.88;;;;;;;26.94;25.11;96720.75;4925946;28;20789;-37
2022/04/18 08:03:22;;;;;;;5.20;2.50;;;;;;;26.95;25.25;96712.78;4920900;28;20035;-34
2022/04/18 08:05:48;;;;;;;6.57;2.60;;;;;;;26.97;25.21;96715.34;4926931;28;20038;-31
2022/04/18 08:08:13;;;;;;;7.05;2.83;;;;;;;26.98;25.23;96719.66;4924758;28;20039;-33
2022/04/18 08:10:39;;;;;;;5.47;2.72;;;;;;;27.00;25.30;96709.88;4926400;28;20098;-32
2022/04/18 08:13:04;;;;;;;7.45;2.40;;;;;;;27.01;25.37;96722.13;4924756;28;20043;-36
2022/04/18 08:15:30;;;;;;;6.68;2.53;;;;;;;27.02;25.28;96713.28;4926353;28;20023;-30
2022/04/18 08:17:56;;;;;;;4.38;2.35;;;;;;;27.04;25.32;96711.38;4908034;28;20565;-33
2022/04/18 08:20:21;;;;;;;7.43;2.58;;;;;;;27.06;25.35;96717.41;4926245;28;20082;-32
2022/04/18 08:22:47;;;;;;;6.80;2.58;;;;;;;27.07;25.37;96718.25;4923684;28;20035;-32
2022/04/18 08:25:13;;;;;;;4.43;2.45;;;;;;;27.06;24.28;96717.41;4922192;28;20031;-37
2022/04/18 08:27:38;;;;;;;4.18;2.50;;;;;;;27.00;23.01;96712.50;4922463;28;20027;-33
2022/04/18 08:30:04;;;;;;;4.47;2.70;;;;;;;26.88;21.57;96712.28;4923660;28;20043;-33
2022/04/18 08:32:36;;;;;;;5.47;2.40;;;;;;;26.73;21.38;96719.28;4921578;28;20123;-38
2022/04/18 08:35:02;;;;;;;4.55;2.70;;;;;;;26.57;20.18;96708.81;4917432;28;20759;-31
2022/04/18 08:37:27;;;;;;;5.15;2.70;;;;;;;26.39;19.90;96718.59;4924240;28;20046;-31
2022/04/18 08:39:53;;;;;;;7.03;2.95;;;;;;;26.23;20.06;96708.06;4928749;28;20031;-34
2022/04/18 08:42:18;;;;;;;4.32;2.47;;;;;;;26.07;19.86;96706.31;4931486;28;20031;-31
2022/04/18 08:44:43;;;;;;;8.38;2.40;;;;;;;25.94;19.96;96711.38;4943952;28;20031;-31
2022/04/18 08:47:09;;;;;;;3.95;2.40;;;;;;;25.87;19.75;96709.19;4930311;28;20032;-36
2022/04/18 08:55:02;;;;;;;6.10;2.30;;;;;;;25.79;20.23;96712.25;4924938;28;20042;-38
2022/04/18 08:57:28;;;;;;;4.30;1.80;;;;;;;25.81;20.39;96720.84;4927474;28;20036;-35
2022/04/18 08:59:53;;;;;;;6.13;2.10;;;;;;;25.83;20.46;96711.97;4927733;28;20032;-30
2022/04/18 09:02:19;;;;;;;3.05;1.90;;;;;;;25.87;20.59;96711.81;4924896;28;20035;-32
2022/04/18 09:04:44;;;;;;;4.32;1.92;;;;;;;25.91;20.71;96710.72;4923577;28;20032;-36
2022/04/18 09:07:10;;;;;;;3.72;1.83;;;;;;;25.93;20.96;96708.88;4920780;28;21290;-36
2022/04/18 09:09:36;;;;;;;4.63;1.80;;;;;;;25.97;20.94;96699.84;4922687;28;20482;-34
2022/04/18 09:12:02;;;;;;;4.13;2.05;;;;;;;26.00;21.18;96699.69;4922661;28;20133;-34
2022/04/18 09:14:27;;;;;;;4.22;2.10;;;;;;;26.04;21.25;96703.84;4925193;28;20185;-37
2022/04/18 09:16:53;;;;;;;7.35;2.20;;;;;;;26.07;21.30;96708.94;4939135;28;20034;-35
2022/04/18 09:19:19;;;;;;;3.38;2.05;;;;;;;26.12;21.31;96699.97;4920903;28;20270;-34
2022/04/18 09:22:01;;;;;;;5.65;2.30;;;;;;;26.15;21.42;96702.41;4928837;28;20687;-36
2022/04/18 09:24:32;;;;;;;12.45;3.03;;;;;;;26.17;21.55;96695.28;4929030;28;20440;-32
2022/04/18 09:27:18;;;;;;;17.58;4.38;;;;;;;26.22;21.61;96701.13;4928219;28;20031;-31
2022/04/18 09:29:44;;;;;;;21.08;4.47;;;;;;;26.25;21.52;96686.97;4936838;28;20508;-31
2022/04/18 09:32:12;;;;;;;11.85;3.85;;;;;;;26.26;21.02;96688.69;4939412;28;20039;-31
2022/04/18 09:34:38;;;;;;;21.88;5.10;;;;;;;26.26;20.78;96689.56;4936486;28;20035;-32
2022/04/18 09:37:14;;;;;;;15.57;4.00;;;;;;;26.25;20.68;96686.97;4920801;28;20027;-34
2022/04/18 09:39:58;;;;;;;13.50;4.75;;;;;;;26.25;20.37;96685.19;4923364;28;20043;-30
2022/04/18 09:42:28;;;;;;;16.02;3.88;;;;;;;26.24;20.29;96686.16;4926900;28;20039;-33
2022/04/18 09:44:53;;;;;;;8.13;3.42;;;;;;;26.21;20.13;96687.13;4927247;28;20028;-33
2022/04/18 09:47:20;;;;;;;16.02;3.20;;;;;;;26.20;20.12;96688.06;4930778;28;20596;-33
2022/04/18 09:49:46;;;;;;;10.20;3.30;;;;;;;26.20;19.85;96684.63;4928064;28;20162;-32
2022/04/18 09:52:13;;;;;;;17.42;14.32;;;;;;;26.18;19.75;96682.09;4924719;28;20119;-34
2022/04/18 09:54:53;;;;;;;7.72;5.15;;;;;;;26.17;19.73;96690.03;4918097;28;20370;-30
2022/04/18 09:57:28;;;;;;;13.48;4.03;;;;;;;26.17;19.92;96679.53;4921472;28;20066;-31
2022/04/18 09:59:55;;;;;;;24.42;4.78;;;;;;;26.16;19.64;96693.59;4925420;28;20547;-32
2022/04/18 10:02:20;;;;;;;7.50;3.33;;;;;;;26.16;19.61;96677.84;4927230;28;20054;-34
2022/04/18 10:04:46;;;;;;;13.65;3.58;;;;;;;26.13;19.56;96680.63;4920636;28;20394;-31
2022/04/18 10:07:12;;;;;;;12.40;3.08;;;;;;;26.13;19.42;96683.25;4926431;28;20123;-34
2022/04/18 10:09:41;;;;;;;9.30;2.75;;;;;;;26.13;19.51;96678.00;4927425;28;20031;-30
2022/04/18 10:12:11;;;;;;;3.75;2.78;;;;;;;26.12;19.25;96676.31;4924446;28;20027;-30
2022/04/18 10:14:37;;;;;;;11.75;3.40;;;;;;;26.12;19.30;96671.06;4920630;28;20023;-34
2022/04/18 10:17:03;;;;;;;4.20;2.33;;;;;;;26.13;19.30;96675.38;4922679;28;20410;-30
2022/04/18 10:19:50;;;;;;;5.55;2.50;;;;;;;26.13;19.28;96672.75;4921028;28;20039;-33
2022/04/18 10:22:46;;;;;;;9.00;3.13;;;;;;;26.13;19.08;96664.88;4919864;28;20576;-33
2022/04/18 10:25:30;;;;;;;7.40;2.60;;;;;;;26.13;19.20;96663.13;4922777;28;20039;-31
2022/04/18 10:28:04;;;;;;;6.60;2.50;;;;;;;26.13;19.28;96654.38;4939413;28;20046;-31
2022/04/18 10:30:32;;;;;;;8.45;2.80;;;;;;;26.14;19.10;96663.94;4935919;28;20039;-33
2022/04/18 10:32:58;;;;;;;7.90;2.70;;;;;;;26.14;18.93;96659.53;4919593;28;20042;-33
2022/04/18 10:35:23;;;;;;;15.30;2.83;;;;;;;26.14;18.88;96653.44;4919156;28;20035;-31
2022/04/18 10:37:52;;;;;;;4.47;2.80;;;;;;;26.12;18.78;96645.63;4925185;28;20509;-31
2022/04/18 10:40:18;;;;;;;7.68;2.78;;;;;;;26.12;18.92;96650.88;4939129;28;20031;-32
2022/04/18 10:42:44;;;;;;;5.88;2.65;;;;;;;26.13;19.27;96662.25;4927074;28;20119;-30
2022/04/18 10:45:09;;;;;;;13.60;3.15;;;;;;;26.12;19.19;96645.63;4912569;28;20126;-33
2022/04/18 10:47:57;;;;;;;7.25;2.70;;;;;;;26.12;19.08;96645.63;4916562;28;20047;-30
2022/04/18 10:50:46;;;;;;;7.60;2.90;;;;;;;26.12;19.24;96645.63;4923516;28;20633;-33
2022/04/18 10:53:40;;;;;;;3.30;2.50;;;;;;;26.13;19.28;96646.50;4922484;28;20038;-37
2022/04/18 10:56:06;;;;;;;8.63;2.55;;;;;;;26.13;19.19;96641.25;4923829;28;20043;-33
2022/04/18 10:58:34;;;;;;;6.65;2.83;;;;;;;26.12;19.24;96642.19;4917079;28;20032;-30
2022/04/18 11:01:01;;;;;;;6.10;2.08;;;;;;;26.12;19.51;96640.38;4924887;28;20162;-31
2022/04/18 11:03:50;;;;;;;5.38;2.10;;;;;;;26.12;19.32;96645.63;4928517;28;20118;-31
2022/04/18 11:06:15;;;;;;;8.68;2.25;;;;;;;26.13;19.16;96636.84;4919107;28;20019;-36
2022/04/18 11:08:41;;;;;;;6.57;2.47;;;;;;;26.14;19.21;96637.69;4924431;28;20070;-32
2022/04/18 11:11:16;;;;;;;8.55;2.67;;;;;;;26.13;19.30;96636.00;4926913;28;20114;-31
2022/04/18 11:13:47;;;;;;;9.60;6.13;;;;;;;26.12;19.20;96624.63;4924606;28;20027;-33
2022/04/18 11:16:22;;;;;;;10.55;5.97;;;;;;;26.11;18.92;96628.19;4935091;28;20039;-34
2022/04/18 11:19:07;;;;;;;13.93;5.15;;;;;;;26.11;18.92;96625.56;4922282;28;20039;-31
2022/04/18 11:21:55;;;;;;;7.13;2.78;;;;;;;26.10;18.58;96618.63;4927832;28;20043;-35
2022/04/18 11:24:41;;;;;;;6.03;2.78;;;;;;;26.09;18.66;96619.56;4930743;28;20459;-31
2022/04/18 11:27:13;;;;;;;6.57;3.22;;;;;;;26.08;18.80;96623.97;4925978;28;20035;-33
2022/04/18 11:29:40;;;;;;;9.77;3.30;;;;;;;26.08;18.68;96613.47;4927348;28;20108;-34
2022/04/18 11:32:06;;;;;;;4.38;2.50;;;;;;;26.07;18.72;96611.78;4924548;28;20030;-33
2022/04/18 11:34:32;;;;;;;8.57;2.95;;;;;;;26.07;18.34;96601.28;4924256;28;20345;-32
2022/04/18 11:37:02;;;;;;;10.45;2.85;;;;;;;26.04;18.30;96601.44;4930765;28;20118;-34
2022/04/18 11:39:51;;;;;;;6.22;2.55;;;;;;;26.02;18.18;96603.31;4926324;28;20066;-31
2022/04/18 11:42:18;;;;;;;6.85;2.85;;;;;;;26.02;18.45;96603.31;4929865;28;20224;-36
2022/04/18 11:44:45;;;;;;;4.88;2.58;;;;;;;26.01;18.48;96591.09;4925901;28;20082;-34
2022/04/18 11:47:14;;;;;;;5.97;2.50;;;;;;;26.01;18.45;96585.03;4926415;28;20043;-36
2022/04/18 11:49:40;;;;;;;5.90;2.20;;;;;;;26.00;18.38;96586.78;4921587;28;20031;-32
2022/04/18 11:52:06;;;;;;;7.93;2.40;;;;;;;25.99;18.54;96587.75;4924093;28;20082;-32